Time;durP1;ratioP1;P1;durP2;ratioP2;P2;SDS_P1;SDS_P2;PMS_P1;PMS_P2;Temp;Humidity;BMP_temperature;BMP_pressure;BME280_temperature;BME280_humidity;BME280_pressure;Samples;Min_cycle;Max_cycle;Signal;HPM_P1;HPM_P2
2023/08/30 00:00:11;;;;;;;18.35;14.43;;;14.60;99.90;;;;;;5092499;28;20052;-76
2023/08/30 00:02:37;;;;;;;16.88;14.02;;;14.60;99.90;;;;;;5068535;28;20056;-76
2023/08/30 00:05:04;;;;;;;16.13;13.32;;;14.50;99.90;;;;;;5087616;28;20405;-76
2023/08/30 00:07:29;;;;;;;16.77;14.00;;;14.50;99.90;;;;;;5085331;28;20474;-75
2023/08/30 00:09:57;;;;;;;16.85;14.55;;;14.50;99.90;;;;;;5088722;28;20040;-76
2023/08/30 00:12:23;;;;;;;15.80;13.52;;;14.40;99.90;;;;;;5082128;28;20063;-76
2023/08/30 00:14:49;;;;;;;18.35;14.75;;;14.40;99.90;;;;;;5083676;28;20159;-76
2023/08/30 00:17:14;;;;;;;19.75;14.32;;;14.40;99.90;;;;;;5077749;28;20415;-76
2023/08/30 00:19:40;;;;;;;17.20;14.02;;;14.40;99.90;;;;;;5070702;28;20047;-76
2023/08/30 00:22:08;;;;;;;20.30;16.52;;;14.30;99.90;;;;;;5073705;28;20055;-76
2023/08/30 00:24:34;;;;;;;19.70;15.70;;;14.30;99.90;;;;;;5084260;28;20040;-76
2023/08/30 00:27:03;;;;;;;17.42;15.00;;;14.30;99.90;;;;;;5083955;28;20048;-76
2023/08/30 00:29:29;;;;;;;18.00;13.30;;;14.20;99.90;;;;;;5093628;28;20040;-76
2023/08/30 00:31:55;;;;;;;15.85;14.13;;;14.20;99.90;;;;;;5078547;28;20044;-76
2023/08/30 00:34:21;;;;;;;16.88;13.15;;;14.20;99.90;;;;;;5086706;28;20430;-76
2023/08/30 00:36:47;;;;;;;16.90;13.57;;;14.20;99.90;;;;;;5086419;28;20044;-76
2023/08/30 00:39:13;;;;;;;17.55;14.63;;;14.10;99.90;;;;;;5058909;28;20048;-76
2023/08/30 00:41:39;;;;;;;17.98;15.32;;;14.10;99.90;;;;;;5082000;28;20039;-75
2023/08/30 00:44:04;;;;;;;18.20;14.52;;;14.10;99.90;;;;;;5090919;28;20059;-75
2023/08/30 00:46:31;;;;;;;18.58;13.70;;;14.00;99.90;;;;;;5080872;28;20410;-76
2023/08/30 00:48:58;;;;;;;14.68;13.13;;;14.00;99.90;;;;;;5084338;28;20040;-76
2023/08/30 00:51:24;;;;;;;21.17;16.60;;;14.00;99.90;;;;;;5076397;28;20153;-76
2023/08/30 00:53:50;;;;;;;19.45;14.90;;;14.00;99.90;;;;;;5089572;28;20119;-76
2023/08/30 00:56:17;;;;;;;14.88;13.07;;;14.00;99.90;;;;;;5089099;28;20039;-76
2023/08/30 00:58:43;;;;;;;18.60;13.98;;;14.00;99.90;;;;;;5096397;28;20237;-76
2023/08/30 01:01:09;;;;;;;16.05;13.60;;;13.90;99.90;;;;;;5083788;28;20124;-76
2023/08/30 01:03:35;;;;;;;18.35;13.45;;;14.00;99.90;;;;;;5075932;28;20060;-76
2023/08/30 01:06:01;;;;;;;16.35;13.18;;;14.00;99.90;;;;;;5095470;28;20532;-75
2023/08/30 01:08:27;;;;;;;15.90;12.60;;;13.90;99.90;;;;;;5097975;28;20036;-76
2023/08/30 01:11:05;;;;;;;17.13;13.30;;;13.90;99.90;;;;;;5094477;28;20482;-75
2023/08/30 01:13:39;;;;;;;17.67;12.88;;;13.90;99.90;;;;;;5083760;28;20442;-75
2023/08/30 01:16:05;;;;;;;13.98;12.20;;;13.90;99.90;;;;;;5087408;28;20044;-75
2023/08/30 01:18:35;;;;;;;16.70;11.70;;;13.90;99.90;;;;;;5088509;28;20130;-75
2023/08/30 01:21:05;;;;;;;14.43;11.90;;;13.90;99.90;;;;;;5086260;28;20049;-75
2023/08/30 01:23:51;;;;;;;13.73;11.10;;;13.90;99.90;;;;;;5096001;28;20131;-76
2023/08/30 01:26:59;;;;;;;13.20;11.75;;;13.80;99.90;;;;;;5087800;28;20099;-76
2023/08/30 01:29:26;;;;;;;14.00;11.40;;;13.90;99.90;;;;;;5075389;28;20047;-76
2023/08/30 01:31:52;;;;;;;14.00;11.50;;;13.80;99.90;;;;;;5099930;28;20108;-76
2023/08/30 01:34:18;;;;;;;18.83;12.25;;;13.80;99.90;;;;;;5075644;28;20119;-75
2023/08/30 01:36:44;;;;;;;14.57;12.10;;;13.80;99.90;;;;;;5087337;28;20075;-76
2023/08/30 01:39:15;;;;;;;15.70;11.60;;;13.80;99.90;;;;;;5090975;28;20040;-76
2023/08/30 01:41:41;;;;;;;15.10;11.45;;;13.80;99.90;;;;;;5088968;28;20050;-76
2023/08/30 01:44:08;;;;;;;16.83;12.90;;;13.80;99.90;;;;;;5106520;28;20044;-76
2023/08/30 01:46:35;;;;;;;16.17;11.63;;;13.80;99.90;;;;;;5098040;28;20389;-76
2023/08/30 01:49:07;;;;;;;15.68;10.75;;;13.80;99.90;;;;;;5091134;28;20502;-76
2023/08/30 01:51:33;;;;;;;13.90;10.43;;;13.70;99.90;;;;;;5095123;28;20486;-76
2023/08/30 01:53:58;;;;;;;14.68;10.70;;;13.70;99.90;;;;;;5076925;28;20040;-76
2023/08/30 01:56:24;;;;;;;12.80;10.77;;;13.70;99.90;;;;;;5086441;28;20040;-76
2023/08/30 01:58:50;;;;;;;12.38;10.57;;;13.70;99.90;;;;;;5101520;28;20059;-76
2023/08/30 02:01:15;;;;;;;13.40;10.48;;;13.70;99.90;;;;;;5086584;28;20123;-76
2023/08/30 02:03:44;;;;;;;13.63;10.18;;;13.70;99.90;;;;;;5095376;28;20044;-75
2023/08/30 02:06:52;;;;;;;15.23;10.52;;;13.70;99.90;;;;;;5097254;28;20055;-76
2023/08/30 02:09:30;;;;;;;12.27;9.50;;;13.60;99.90;;;;;;5096163;28;20497;-76
2023/08/30 02:12:00;;;;;;;11.93;9.80;;;13.60;99.90;;;;;;5101557;28;20082;-75
2023/08/30 02:14:26;;;;;;;13.10;10.05;;;13.60;99.90;;;;;;5083372;28;20041;-75
2023/08/30 02:16:55;;;;;;;14.45;10.07;;;13.60;99.90;;;;;;5084046;28;20465;-75
2023/08/30 02:19:21;;;;;;;14.43;10.40;;;13.50;99.90;;;;;;5087122;28;20070;-76
2023/08/30 02:21:47;;;;;;;12.10;9.80;;;13.60;99.90;;;;;;5087379;28;20498;-76
2023/08/30 02:24:13;;;;;;;13.02;11.05;;;13.50;99.90;;;;;;5076586;28;20374;-76
2023/08/30 02:26:39;;;;;;;12.57;9.85;;;13.50;99.90;;;;;;5082469;28;20049;-75
2023/08/30 02:29:05;;;;;;;14.30;10.38;;;13.50;99.90;;;;;;5092824;28;20044;-76
2023/08/30 02:31:31;;;;;;;15.40;10.73;;;13.50;99.90;;;;;;5090406;28;20074;-76
2023/08/30 02:33:56;;;;;;;13.70;9.82;;;13.50;99.90;;;;;;5081921;28;20039;-76
2023/08/30 02:36:22;;;;;;;12.85;10.00;;;13.50;99.90;;;;;;5090667;28;20071;-76
2023/08/30 02:38:47;;;;;;;18.85;10.32;;;13.50;99.90;;;;;;5086606;28;20094;-76
2023/08/30 02:41:13;;;;;;;14.00;10.73;;;13.50;99.90;;;;;;5093447;28;20044;-76
2023/08/30 02:43:39;;;;;;;15.38;10.55;;;13.50;99.90;;;;;;5069636;28;20067;-75
2023/08/30 02:46:05;;;;;;;12.48;10.02;;;13.60;99.90;;;;;;5079856;28;20078;-75
2023/08/30 02:48:31;;;;;;;12.90;10.02;;;13.60;99.90;;;;;;5086661;28;20047;-75
2023/08/30 02:50:57;;;;;;;13.52;10.68;;;13.60;99.90;;;;;;5088618;28;20046;-76
2023/08/30 02:53:23;;;;;;;13.95;10.55;;;13.60;99.90;;;;;;5074914;27;20487;-76
2023/08/30 02:55:49;;;;;;;13.55;10.50;;;13.60;99.90;;;;;;5082317;28;20040;-76
2023/08/30 02:58:15;;;;;;;11.23;9.55;;;13.60;99.90;;;;;;5090534;28;20326;-76
2023/08/30 03:00:41;;;;;;;15.00;9.65;;;13.70;99.90;;;;;;5078723;28;20056;-76
2023/08/30 03:03:06;;;;;;;12.20;9.50;;;13.70;99.90;;;;;;5078066;28;20044;-76
2023/08/30 03:05:32;;;;;;;11.27;9.18;;;13.70;99.90;;;;;;5089230;28;20087;-76
2023/08/30 03:07:58;;;;;;;11.32;9.60;;;13.70;99.90;;;;;;5078566;28;20096;-76
2023/08/30 03:10:24;;;;;;;12.27;9.50;;;13.70;99.90;;;;;;5085853;28;20040;-76
2023/08/30 03:12:50;;;;;;;14.38;10.40;;;13.60;99.90;;;;;;5090139;28;20131;-76
2023/08/30 03:15:15;;;;;;;13.88;9.30;;;13.60;99.90;;;;;;5089425;28;20035;-76
2023/08/30 03:17:41;;;;;;;12.23;10.05;;;13.60;99.90;;;;;;5084315;28;20040;-76
2023/08/30 03:20:07;;;;;;;14.85;10.57;;;13.50;99.90;;;;;;5086428;28;20059;-76
2023/08/30 03:22:33;;;;;;;12.15;9.65;;;13.50;99.90;;;;;;5083192;28;20052;-76
2023/08/30 03:24:59;;;;;;;14.80;10.20;;;13.50;99.90;;;;;;5092026;28;20417;-76
2023/08/30 03:27:25;;;;;;;16.52;10.32;;;13.50;99.90;;;;;;5085723;28;20040;-76
2023/08/30 03:29:50;;;;;;;13.70;10.65;;;13.40;99.90;;;;;;5086637;28;20079;-75
2023/08/30 03:32:18;;;;;;;13.35;10.20;;;13.40;99.90;;;;;;5086383;28;20394;-75
2023/08/30 03:34:47;;;;;;;13.07;9.57;;;13.40;99.90;;;;;;5064173;28;20044;-75
2023/08/30 03:37:16;;;;;;;15.25;10.48;;;13.30;99.90;;;;;;5079516;28;20040;-76
2023/08/30 03:39:42;;;;;;;13.05;10.32;;;13.30;99.90;;;;;;5078591;28;20036;-75
2023/08/30 03:42:07;;;;;;;11.82;10.13;;;13.30;99.90;;;;;;5097261;27;20044;-75
2023/08/30 03:44:33;;;;;;;16.42;11.57;;;13.30;99.90;;;;;;5084885;28;20521;-75
2023/08/30 03:46:59;;;;;;;13.25;10.65;;;13.30;99.90;;;;;;5082387;28;20037;-75
2023/08/30 03:49:25;;;;;;;15.98;11.30;;;13.20;99.90;;;;;;5087547;28;20036;-77
2023/08/30 03:51:51;;;;;;;13.75;10.95;;;13.20;99.90;;;;;;5088670;28;20142;-76
2023/08/30 03:54:17;;;;;;;15.40;11.85;;;13.20;99.90;;;;;;5078736;28;20182;-75
2023/08/30 03:56:43;;;;;;;19.80;11.45;;;13.20;99.90;;;;;;5090597;28;20040;-76
2023/08/30 03:59:10;;;;;;;14.60;11.38;;;13.20;99.90;;;;;;5073879;28;20071;-76
2023/08/30 04:01:35;;;;;;;16.55;11.25;;;13.10;99.90;;;;;;5079887;28;20033;-76
2023/08/30 04:04:01;;;;;;;15.88;11.63;;;13.10;99.90;;;;;;5095875;28;20541;-76
2023/08/30 04:06:26;;;;;;;13.95;11.60;;;13.00;99.90;;;;;;5088051;28;20482;-76
2023/08/30 04:08:52;;;;;;;17.17;11.38;;;13.00;99.90;;;;;;5079161;28;20041;-76
2023/08/30 04:11:18;;;;;;;15.70;12.50;;;13.00;99.90;;;;;;5084009;28;20036;-76
2023/08/30 04:13:43;;;;;;;16.23;11.93;;;13.00;99.90;;;;;;5089166;28;20077;-77
2023/08/30 04:16:09;;;;;;;15.10;11.88;;;13.00;99.90;;;;;;5085672;28;20047;-77
2023/08/30 04:18:34;;;;;;;17.10;11.90;;;13.00;99.90;;;;;;5090920;28;20047;-77
2023/08/30 04:21:02;;;;;;;15.68;11.60;;;13.00;99.90;;;;;;5089336;28;20058;-76
2023/08/30 04:23:28;;;;;;;16.23;12.18;;;13.00;99.90;;;;;;5088576;28;20136;-77
2023/08/30 04:25:54;;;;;;;14.98;11.68;;;13.00;99.90;;;;;;5086080;28;20440;-76
2023/08/30 04:28:20;;;;;;;17.38;11.57;;;12.90;99.90;;;;;;5084969;28;20040;-75
2023/08/30 04:30:45;;;;;;;14.38;11.50;;;12.90;99.90;;;;;;5081682;28;20040;-76
2023/08/30 04:33:11;;;;;;;14.75;11.65;;;13.00;99.90;;;;;;5097117;28;20086;-76
2023/08/30 04:35:37;;;;;;;17.85;11.57;;;13.00;99.90;;;;;;5099529;28;20082;-76
2023/08/30 04:38:03;;;;;;;15.82;11.10;;;12.90;99.90;;;;;;5087803;28;20035;-76
2023/08/30 04:40:30;;;;;;;16.52;12.02;;;12.90;99.90;;;;;;5087357;28;20123;-75
2023/08/30 04:42:58;;;;;;;14.98;10.80;;;13.00;99.90;;;;;;5092937;28;20115;-75
2023/08/30 04:45:23;;;;;;;15.18;11.13;;;13.00;99.90;;;;;;5081412;28;20052;-76
2023/08/30 04:47:49;;;;;;;16.88;11.05;;;12.90;99.90;;;;;;5091290;28;20098;-75
2023/08/30 04:50:15;;;;;;;14.25;10.70;;;12.90;99.90;;;;;;5100704;28;20028;-75
2023/08/30 04:52:42;;;;;;;12.85;10.35;;;13.00;99.90;;;;;;5092671;28;20115;-76
2023/08/30 04:55:08;;;;;;;14.48;9.95;;;13.00;99.90;;;;;;5079836;28;20048;-75
2023/08/30 04:57:34;;;;;;;14.75;10.43;;;13.00;99.90;;;;;;5082244;28;20055;-76
2023/08/30 05:00:04;;;;;;;12.48;10.38;;;13.00;99.90;;;;;;5084554;28;20482;-76
2023/08/30 05:02:29;;;;;;;12.77;10.25;;;13.00;99.90;;;;;;5098202;28;20044;-77
2023/08/30 05:04:55;;;;;;;16.60;10.60;;;13.00;99.90;;;;;;5100165;28;20185;-77
2023/08/30 05:07:21;;;;;;;14.57;10.48;;;13.00;99.90;;;;;;5092529;28;20116;-76
2023/08/30 05:09:46;;;;;;;12.90;10.15;;;13.00;99.90;;;;;;5090021;28;20040;-76
2023/08/30 05:12:12;;;;;;;13.90;10.68;;;13.00;99.90;;;;;;5104440;28;20066;-76
2023/08/30 05:14:38;;;;;;;16.60;10.68;;;13.00;99.90;;;;;;5103774;28;20059;-76
2023/08/30 05:17:03;;;;;;;13.60;10.20;;;13.00;99.90;;;;;;5086514;28;20068;-76
2023/08/30 05:19:29;;;;;;;12.30;9.38;;;13.00;99.90;;;;;;5099069;28;20117;-75
2023/08/30 05:21:55;;;;;;;14.18;10.65;;;13.10;99.90;;;;;;5093797;28;21723;-76
2023/08/30 05:24:21;;;;;;;14.70;10.25;;;13.10;99.90;;;;;;5087409;28;20056;-76
2023/08/30 05:26:47;;;;;;;13.05;9.93;;;13.10;99.90;;;;;;5080625;28;20079;-76
2023/08/30 05:29:14;;;;;;;14.90;10.35;;;13.20;99.90;;;;;;5065801;28;20498;-75
2023/08/30 05:31:40;;;;;;;15.85;10.05;;;13.20;99.90;;;;;;5086501;28;20131;-77
2023/08/30 05:34:05;;;;;;;12.50;10.50;;;13.30;99.90;;;;;;5086690;28;20131;-76
2023/08/30 05:36:31;;;;;;;15.45;9.93;;;13.20;99.90;;;;;;5082934;28;20040;-75
2023/08/30 05:38:57;;;;;;;12.57;9.88;;;13.30;99.90;;;;;;5093643;28;20506;-76
2023/08/30 05:41:22;;;;;;;13.07;10.85;;;13.40;99.90;;;;;;5082991;28;20050;-76
2023/08/30 05:43:48;;;;;;;16.02;10.93;;;13.40;99.90;;;;;;5091073;28;20509;-75
2023/08/30 05:46:15;;;;;;;18.15;11.20;;;13.40;99.90;;;;;;5067403;28;20555;-76
2023/08/30 05:48:41;;;;;;;13.80;10.40;;;13.40;99.90;;;;;;5095363;28;20063;-76
2023/08/30 05:51:07;;;;;;;14.30;10.52;;;13.40;99.90;;;;;;5096072;28;20740;-76
2023/08/30 05:53:32;;;;;;;14.10;10.07;;;13.50;99.90;;;;;;5082750;28;20044;-76
2023/08/30 05:55:58;;;;;;;16.48;10.82;;;13.50;99.90;;;;;;5089597;28;20044;-76
2023/08/30 05:58:23;;;;;;;12.57;10.40;;;13.50;99.90;;;;;;5096401;28;20047;-76
2023/08/30 06:00:49;;;;;;;15.88;11.38;;;13.60;99.90;;;;;;5077744;28;20121;-77
2023/08/30 06:03:15;;;;;;;15.25;10.38;;;13.60;99.90;;;;;;5089946;28;20340;-76
2023/08/30 06:05:42;;;;;;;15.27;10.55;;;13.70;99.90;;;;;;5101808;28;20170;-76
2023/08/30 06:08:08;;;;;;;14.03;11.33;;;13.70;99.90;;;;;;5082739;28;20055;-77
2023/08/30 06:10:35;;;;;;;14.25;10.75;;;13.70;99.90;;;;;;5076151;28;20119;-77
2023/08/30 06:13:00;;;;;;;15.60;11.10;;;13.70;99.90;;;;;;5093060;28;20144;-76
2023/08/30 06:15:26;;;;;;;16.15;11.77;;;13.80;99.90;;;;;;5090106;28;20510;-76
2023/08/30 06:17:52;;;;;;;16.75;11.68;;;13.80;99.90;;;;;;5087319;28;20040;-77
2023/08/30 06:20:17;;;;;;;16.90;11.20;;;13.80;99.90;;;;;;5094799;28;20383;-77
2023/08/30 06:22:43;;;;;;;18.20;12.27;;;13.90;99.90;;;;;;5086935;28;20036;-75
2023/08/30 06:25:09;;;;;;;15.35;11.48;;;13.90;99.90;;;;;;5076345;28;20052;-75
2023/08/30 06:27:42;;;;;;;14.90;11.15;;;13.90;99.90;;;;;;5094134;28;20052;-76
2023/08/30 06:30:09;;;;;;;15.30;11.02;;;14.10;99.90;;;;;;5086622;28;20035;-76
2023/08/30 06:32:35;;;;;;;15.20;10.50;;;14.20;99.90;;;;;;5084233;28;20040;-76
2023/08/30 06:35:01;;;;;;;14.57;10.48;;;14.30;99.90;;;;;;5064815;28;20044;-76
2023/08/30 06:37:26;;;;;;;12.77;10.32;;;14.40;99.90;;;;;;5086227;28;20047;-75
2023/08/30 06:39:52;;;;;;;12.82;9.43;;;14.60;99.90;;;;;;5089023;28;20048;-77
2023/08/30 06:42:17;;;;;;;13.52;10.63;;;14.80;99.90;;;;;;5090099;28;20135;-75
2023/08/30 06:44:43;;;;;;;16.10;10.90;;;15.00;99.90;;;;;;5091787;28;20769;-76
2023/08/30 06:47:09;;;;;;;16.73;10.50;;;15.10;99.90;;;;;;5087158;28;20036;-76
2023/08/30 06:49:34;;;;;;;14.82;9.80;;;15.10;99.90;;;;;;5093760;28;20492;-75
2023/08/30 06:52:03;;;;;;;12.20;9.25;;;15.20;99.90;;;;;;5093144;28;20043;-76
2023/08/30 06:54:30;;;;;;;14.65;10.23;;;15.10;99.90;;;;;;5086748;28;20052;-76
2023/08/30 06:57:00;;;;;;;12.07;9.40;;;15.00;99.90;;;;;;5095036;28;20051;-77
2023/08/30 06:59:27;;;;;;;13.48;9.60;;;14.90;99.90;;;;;;5093428;28;20070;-76
2023/08/30 07:01:52;;;;;;;14.00;9.63;;;14.90;99.90;;;;;;5080966;28;20063;-77
2023/08/30 07:04:18;;;;;;;12.77;9.38;;;14.90;99.90;;;;;;5107928;28;20482;-76
2023/08/30 07:06:47;;;;;;;13.20;9.40;;;14.90;99.90;;;;;;5075817;28;20044;-76
2023/08/30 07:09:12;;;;;;;15.10;8.95;;;14.90;99.90;;;;;;5080521;28;20501;-76
2023/08/30 07:11:38;;;;;;;11.93;8.52;;;14.90;99.90;;;;;;5086125;28;20075;-76
2023/08/30 07:14:04;;;;;;;13.52;8.98;;;15.00;99.90;;;;;;5078862;28;20048;-76
2023/08/30 07:16:33;;;;;;;11.38;8.80;;;14.90;99.90;;;;;;5082497;28;20041;-76
2023/08/30 07:19:00;;;;;;;15.40;8.85;;;15.00;99.90;;;;;;5090130;28;20502;-76
2023/08/30 07:21:25;;;;;;;14.50;8.80;;;14.90;99.90;;;;;;5093121;28;20067;-76
2023/08/30 07:23:51;;;;;;;15.93;8.82;;;15.00;99.90;;;;;;5087782;28;20483;-76
2023/08/30 07:26:17;;;;;;;13.65;9.60;;;15.00;99.90;;;;;;5074068;28;20047;-76
2023/08/30 07:28:42;;;;;;;15.23;9.13;;;15.00;99.90;;;;;;5078603;28;20106;-76
2023/08/30 07:31:08;;;;;;;14.73;8.55;;;15.00;99.90;;;;;;5075728;28;20044;-77
2023/08/30 07:33:35;;;;;;;12.63;8.75;;;15.00;99.90;;;;;;5061966;28;20068;-75
2023/08/30 07:36:00;;;;;;;12.45;9.05;;;15.00;99.90;;;;;;5086291;28;20047;-76
2023/08/30 07:38:26;;;;;;;12.35;8.02;;;15.00;99.90;;;;;;5079551;28;20044;-76
2023/08/30 07:40:53;;;;;;;15.98;9.27;;;15.10;99.90;;;;;;5083934;28;20037;-76
2023/08/30 07:43:19;;;;;;;15.10;9.07;;;15.10;99.90;;;;;;5075148;28;20040;-76
2023/08/30 07:45:45;;;;;;;13.48;7.88;;;15.20;99.90;;;;;;5079311;28;20297;-76
2023/08/30 07:48:12;;;;;;;15.30;8.52;;;15.30;99.90;;;;;;5084683;28;20079;-76
2023/08/30 07:50:37;;;;;;;12.18;8.07;;;15.40;99.90;;;;;;5093470;28;20048;-75
2023/08/30 07:53:03;;;;;;;13.27;7.97;;;15.50;99.90;;;;;;5083132;28;20063;-76
2023/08/30 07:55:29;;;;;;;14.65;8.20;;;15.70;99.90;;;;;;5079543;28;20036;-75
2023/08/30 07:57:54;;;;;;;13.02;8.10;;;15.80;99.90;;;;;;5083457;28;20036;-76
2023/08/30 08:00:20;;;;;;;13.98;8.38;;;15.90;99.90;;;;;;5092541;28;20048;-77
2023/08/30 08:02:46;;;;;;;12.15;8.02;;;16.00;99.90;;;;;;5092183;28;20039;-77
2023/08/30 08:05:11;;;;;;;10.25;7.40;;;16.00;99.90;;;;;;5094993;28;20492;-75
2023/08/30 08:07:43;;;;;;;11.20;6.95;;;16.00;99.90;;;;;;5095845;28;20502;-76
2023/08/30 08:10:09;;;;;;;12.32;8.20;;;16.10;99.90;;;;;;5089969;28;20126;-76
2023/08/30 08:12:36;;;;;;;12.77;8.07;;;16.10;99.90;;;;;;5083508;28;20045;-76
2023/08/30 08:15:02;;;;;;;12.35;7.40;;;16.20;99.90;;;;;;5092583;28;20036;-76
2023/08/30 08:17:29;;;;;;;12.63;6.85;;;16.30;99.90;;;;;;5090203;28;20045;-76
2023/08/30 08:19:54;;;;;;;10.95;7.82;;;16.30;99.90;;;;;;5091625;28;20036;-76
2023/08/30 08:22:23;;;;;;;10.25;7.32;;;16.40;99.90;;;;;;5099644;28;20543;-77
2023/08/30 08:24:51;;;;;;;13.68;7.90;;;16.40;99.90;;;;;;5083853;28;20071;-77
2023/08/30 08:27:17;;;;;;;;;;;16.50;99.90;;;;;;5076076;28;20044;-76
2023/08/30 08:29:42;;;;;;;10.68;7.22;;;16.50;99.90;;;;;;5092036;28;20301;-76
2023/08/30 08:32:08;;;;;;;15.43;8.18;;;16.50;99.90;;;;;;5092735;28;20078;-75
2023/08/30 08:34:34;;;;;;;12.80;7.78;;;16.60;99.90;;;;;;5084002;28;20041;-76
2023/08/30 08:37:00;;;;;;;11.57;8.63;;;16.60;99.90;;;;;;5097299;28;20077;-75
2023/08/30 08:39:25;;;;;;;11.65;7.90;;;16.70;99.90;;;;;;5081738;28;20043;-75
2023/08/30 08:41:53;;;;;;;12.88;8.30;;;16.60;99.90;;;;;;5104581;28;20044;-74
2023/08/30 08:44:19;;;;;;;14.68;8.35;;;16.70;99.90;;;;;;5072456;28;20041;-75
2023/08/30 08:46:46;;;;;;;13.00;7.85;;;16.70;99.90;;;;;;5092241;28;20123;-75
2023/08/30 08:49:14;;;;;;;15.67;8.93;;;16.80;99.90;;;;;;5105802;28;20042;-75
2023/08/30 08:51:42;;;;;;;14.73;8.52;;;16.90;99.90;;;;;;5089826;28;20308;-77
2023/08/30 08:54:11;;;;;;;11.73;8.23;;;16.90;99.90;;;;;;5093928;28;20040;-76
2023/08/30 08:56:38;;;;;;;11.30;8.10;;;17.00;99.90;;;;;;5084021;28;20045;-77
2023/08/30 08:59:05;;;;;;;12.40;8.52;;;17.00;99.90;;;;;;5094061;28;20044;-75
2023/08/30 09:01:33;;;;;;;13.48;7.70;;;17.00;99.90;;;;;;5094222;28;20044;-76
2023/08/30 09:03:59;;;;;;;16.02;8.25;;;17.00;99.90;;;;;;5088350;28;20041;-76
2023/08/30 09:06:25;;;;;;;11.88;7.60;;;17.00;99.90;;;;;;5091791;28;20051;-75
2023/08/30 09:08:51;;;;;;;15.98;8.27;;;17.00;99.90;;;;;;5087116;28;20093;-74
2023/08/30 09:11:17;;;;;;;11.45;7.57;;;16.90;99.90;;;;;;5091369;28;20032;-74
2023/08/30 09:13:44;;;;;;;12.90;7.65;;;16.80;99.90;;;;;;5083190;28;20036;-75
2023/08/30 09:16:15;;;;;;;11.07;8.02;;;16.80;99.90;;;;;;5072259;28;20056;-75
2023/08/30 09:18:42;;;;;;;11.27;7.32;;;16.70;99.90;;;;;;5088091;28;20056;-75
2023/08/30 09:21:12;;;;;;;13.63;7.50;;;16.70;99.90;;;;;;5073737;28;20048;-76
2023/08/30 09:23:38;;;;;;;13.50;7.90;;;16.60;99.90;;;;;;5089329;28;20040;-75
2023/08/30 09:26:05;;;;;;;13.70;7.63;;;16.60;99.90;;;;;;5095001;28;20375;-76
2023/08/30 09:28:34;;;;;;;13.60;7.65;;;16.60;99.90;;;;;;5066492;28;20049;-75
2023/08/30 09:31:00;;;;;;;18.67;8.27;;;16.70;99.90;;;;;;5092684;28;20422;-75
2023/08/30 09:33:33;;;;;;;14.40;7.63;;;16.70;99.90;;;;;;5085469;28;20130;-75
2023/08/30 09:36:00;;;;;;;12.18;7.53;;;16.70;99.90;;;;;;5083704;28;20039;-75
2023/08/30 09:38:26;;;;;;;12.05;7.03;;;16.60;99.90;;;;;;5088797;28;20032;-76
2023/08/30 09:40:52;;;;;;;10.93;7.05;;;16.60;99.90;;;;;;5077185;28;20402;-75
2023/08/30 09:43:21;;;;;;;12.85;7.47;;;16.60;99.90;;;;;;5088334;28;20119;-76
2023/08/30 09:45:47;;;;;;;11.10;7.40;;;16.60;99.90;;;;;;5085445;28;20072;-75
2023/08/30 09:48:14;;;;;;;10.90;7.05;;;16.60;99.90;;;;;;5092585;28;20036;-74
2023/08/30 09:50:44;;;;;;;12.40;7.20;;;16.60;99.90;;;;;;5080447;28;20045;-75
2023/08/30 09:53:11;;;;;;;10.52;7.10;;;16.60;99.90;;;;;;5090454;28;20066;-76
2023/08/30 09:55:37;;;;;;;12.00;6.72;;;16.60;99.90;;;;;;5096166;28;20044;-75
2023/08/30 09:58:04;;;;;;;12.25;7.50;;;16.60;99.90;;;;;;5092441;28;20093;-74
2023/08/30 10:00:36;;;;;;;9.63;6.55;;;16.60;99.90;;;;;;5085768;28;20040;-74
2023/08/30 10:03:03;;;;;;;13.57;7.65;;;16.60;99.90;;;;;;5095155;28;20040;-74
2023/08/30 10:05:30;;;;;;;10.18;6.63;;;16.60;99.90;;;;;;5098426;28;20032;-73
2023/08/30 10:07:57;;;;;;;11.65;7.00;;;16.70;99.90;;;;;;5087236;28;20051;-75
2023/08/30 10:10:23;;;;;;;9.55;6.80;;;16.70;99.90;;;;;;5074593;28;20039;-74
2023/08/30 10:12:49;;;;;;;11.18;6.90;;;16.70;99.90;;;;;;5090169;28;20055;-74
2023/08/30 10:15:15;;;;;;;10.40;6.35;;;16.80;99.90;;;;;;5096362;28;20044;-75
2023/08/30 10:17:45;;;;;;;12.25;6.25;;;16.90;99.90;;;;;;5093323;28;20040;-75
2023/08/30 10:20:14;;;;;;;12.02;6.93;;;17.00;99.90;;;;;;5088858;28;20097;-74
2023/08/30 10:22:41;;;;;;;11.00;6.88;;;17.00;99.90;;;;;;5101956;28;20100;-75
2023/08/30 10:25:21;;;;;;;11.95;6.20;;;17.00;99.90;;;;;;5099087;28;20052;-75
2023/08/30 10:27:48;;;;;;;10.75;6.88;;;17.00;99.90;;;;;;5097194;28;20548;-74
2023/08/30 10:30:15;;;;;;;13.82;6.85;;;17.10;99.90;;;;;;5086038;28;20036;-74
2023/08/30 10:32:42;;;;;;;9.18;6.00;;;17.10;99.90;;;;;;5074407;28;20151;-74
2023/08/30 10:35:12;;;;;;;9.85;7.00;;;17.10;99.90;;;;;;5103408;28;20138;-74
2023/08/30 10:37:40;;;;;;;12.30;7.38;;;17.20;99.90;;;;;;5097813;28;20068;-75
2023/08/30 10:40:06;;;;;;;15.68;7.45;;;17.20;99.90;;;;;;5090878;28;20041;-75
2023/08/30 10:42:32;;;;;;;10.60;6.32;;;17.30;99.90;;;;;;5084778;28;20124;-74
2023/08/30 10:45:02;;;;;;;9.27;7.15;;;17.30;99.90;;;;;;5101893;28;20043;-76
2023/08/30 10:47:37;;;;;;;13.27;7.18;;;17.40;99.90;;;;;;5091014;28;20044;-75
2023/08/30 10:50:30;;;;;;;11.80;6.95;;;17.50;99.90;;;;;;5115055;27;20052;-73
2023/08/30 10:52:56;;;;;;;12.82;7.15;;;17.50;99.90;;;;;;5092211;28;20052;-75
2023/08/30 10:55:23;;;;;;;11.68;6.85;;;17.50;99.90;;;;;;5086785;28;20041;-75
2023/08/30 10:58:04;;;;;;;11.70;7.75;;;17.50;99.90;;;;;;5068542;28;20036;-76
2023/08/30 11:00:30;;;;;;;11.73;7.40;;;17.50;99.90;;;;;;5096663;28;20606;-76
2023/08/30 11:02:57;;;;;;;15.20;6.85;;;17.50;99.90;;;;;;5088060;28;20058;-75
2023/08/30 11:05:24;;;;;;;9.07;6.47;;;17.50;99.90;;;;;;5093349;28;20040;-74
2023/08/30 11:07:51;;;;;;;12.20;6.47;;;17.50;99.90;;;;;;5080658;28;20052;-75
2023/08/30 11:10:18;;;;;;;8.73;5.50;;;17.50;99.90;;;;;;5082946;28;20291;-75
2023/08/30 11:12:44;;;;;;;8.80;5.67;;;17.50;99.90;;;;;;5104781;28;20474;-75
2023/08/30 11:15:15;;;;;;;9.98;5.75;;;17.50;99.90;;;;;;5091630;28;20040;-75
2023/08/30 11:17:45;;;;;;;9.50;4.80;;;17.60;99.90;;;;;;5077980;28;20505;-74
2023/08/30 11:20:13;;;;;;;8.20;4.50;;;17.70;99.90;;;;;;5113854;27;20048;-75
2023/08/30 11:22:47;;;;;;;7.75;4.60;;;17.80;99.90;;;;;;5076898;28;20052;-76
2023/08/30 11:25:14;;;;;;;6.22;4.57;;;17.90;99.90;;;;;;5079510;28;20048;-76
2023/08/30 11:27:40;;;;;;;6.07;3.92;;;18.00;99.90;;;;;;5086420;28;20138;-75
2023/08/30 11:30:08;;;;;;;9.35;4.70;;;18.00;99.90;;;;;;5084180;28;20558;-76
2023/08/30 11:32:39;;;;;;;9.65;5.10;;;18.10;99.90;;;;;;5076248;28;20493;-76
2023/08/30 11:35:05;;;;;;;7.85;5.47;;;18.10;99.90;;;;;;5114052;27;20047;-76
2023/08/30 11:37:32;;;;;;;7.45;5.43;;;18.00;99.90;;;;;;5087985;28;20048;-75
2023/08/30 11:40:00;;;;;;;7.78;5.50;;;18.00;99.90;;;;;;5088223;28;20036;-76
2023/08/30 11:42:26;;;;;;;7.93;5.13;;;18.00;99.90;;;;;;5090414;28;20367;-75
2023/08/30 11:44:52;;;;;;;7.47;4.55;;;17.90;99.90;;;;;;5083014;28;20047;-75
2023/08/30 11:47:20;;;;;;;7.55;4.68;;;17.70;99.90;;;;;;5075734;28;20048;-75
2023/08/30 11:49:48;;;;;;;6.10;4.50;;;17.70;99.90;;;;;;5080039;28;20524;-76
2023/08/30 11:52:14;;;;;;;;;;;17.60;99.90;;;;;;5090219;28;20066;-75
2023/08/30 11:54:40;;;;;;;5.50;3.92;;;17.60;99.90;;;;;;5078757;28;20370;-75
2023/08/30 11:57:05;;;;;;;6.43;3.97;;;17.60;99.90;;;;;;5079309;28;20679;-76
2023/08/30 11:59:34;;;;;;;8.30;4.40;;;17.50;99.90;;;;;;5083597;28;20048;-75
2023/08/30 12:02:00;;;;;;;6.15;4.10;;;17.50;99.90;;;;;;5077078;28;20086;-74
2023/08/30 12:04:26;;;;;;;5.68;4.35;;;17.50;99.90;;;;;;5086187;28;20444;-75
2023/08/30 12:06:55;;;;;;;4.60;3.72;;;17.50;99.90;;;;;;5086395;28;20067;-76
2023/08/30 12:09:21;;;;;;;5.43;3.63;;;17.50;99.90;;;;;;5077696;28;20375;-74
2023/08/30 12:11:50;;;;;;;8.18;4.22;;;17.50;99.90;;;;;;5089428;28;20077;-75
2023/08/30 12:14:16;;;;;;;7.63;4.20;;;17.40;99.90;;;;;;5091902;28;20055;-76
2023/08/30 12:16:42;;;;;;;7.72;4.60;;;17.40;99.90;;;;;;5074782;28;20097;-76
2023/08/30 12:19:12;;;;;;;7.97;5.05;;;17.30;99.90;;;;;;5093733;28;20432;-76
2023/08/30 12:21:46;;;;;;;9.05;4.95;;;17.20;99.90;;;;;;5085390;28;20418;-75
2023/08/30 12:24:12;;;;;;;8.80;5.15;;;17.00;99.90;;;;;;5084884;28;20044;-75
2023/08/30 12:26:38;;;;;;;9.10;5.35;;;16.90;99.90;;;;;;5079317;28;20063;-75
2023/08/30 12:29:06;;;;;;;6.03;4.78;;;16.80;99.90;;;;;;5083519;28;20394;-74
2023/08/30 12:31:33;;;;;;;9.30;5.40;;;16.70;99.90;;;;;;5088319;28;20044;-73